Terminal Aerodrome Forecast
Issued by NWS

Home | Current Version | Previous Version | Text Only | Print | Product List | Glossary On
Versions: 1 2 3 4 5 6 7 8 9 10 11 12 13 14 15 16 17 18 19 20 21 22 23 24 25 26 27 28 29
000
FTUS41 KILN 240848 AAA
TAFLUK
TAF AMD
KLUK 240848Z 2409/2506 VRB05KT P6SM VCSH OVC015
      TEMPO 2409/2412 5SM -RA SCT015 OVC050
     FM241200 03008KT P6SM VCSH OVC012
      TEMPO 2414/2418 4SM -RA BR
     FM242000 09011KT P6SM VCSH OVC025
     FM250000 15009KT 5SM -RA OVC025
     FM250300 19012G20KT 5SM SHRA OVC040=

USA.gov is the U.S. government's official web portal to all federal, state and local government web resources and services.